sensor_id;sensor_type;location;lat;lon;timestamp;P1;durP1;ratioP1;P2;durP2;ratioP2
1026;SDS011;502;48.746;9.214;2024-02-21T00:00:21;6.73;;;5.10;;
1026;SDS011;502;48.746;9.214;2024-02-21T00:02:48;7.90;;;4.90;;
1026;SDS011;502;48.746;9.214;2024-02-21T00:05:14;8.70;;;4.73;;
1026;SDS011;502;48.746;9.214;2024-02-21T00:07:42;8.00;;;5.60;;
1026;SDS011;502;48.746;9.214;2024-02-21T00:10:09;8.20;;;5.70;;
1026;SDS011;502;48.746;9.214;2024-02-21T00:12:35;7.77;;;4.70;;
1026;SDS011;502;48.746;9.214;2024-02-21T00:15:02;6.40;;;5.00;;
1026;SDS011;502;48.746;9.214;2024-02-21T00:17:29;8.13;;;5.40;;
1026;SDS011;502;48.746;9.214;2024-02-21T00:19:57;9.90;;;5.70;;
1026;SDS011;502;48.746;9.214;2024-02-21T00:22:24;8.40;;;4.70;;
1026;SDS011;502;48.746;9.214;2024-02-21T00:24:54;9.20;;;4.60;;
1026;SDS011;502;48.746;9.214;2024-02-21T00:27:21;9.60;;;5.90;;
1026;SDS011;502;48.746;9.214;2024-02-21T00:29:47;12.07;;;4.63;;
1026;SDS011;502;48.746;9.214;2024-02-21T00:32:14;6.53;;;4.33;;
1026;SDS011;502;48.746;9.214;2024-02-21T00:34:41;6.47;;;5.27;;
1026;SDS011;502;48.746;9.214;2024-02-21T00:37:07;7.43;;;4.20;;
1026;SDS011;502;48.746;9.214;2024-02-21T00:39:34;7.00;;;5.07;;
1026;SDS011;502;48.746;9.214;2024-02-21T00:42:02;9.00;;;4.50;;
1026;SDS011;502;48.746;9.214;2024-02-21T00:44:29;6.70;;;4.60;;
1026;SDS011;502;48.746;9.214;2024-02-21T00:46:55;8.63;;;5.63;;
1026;SDS011;502;48.746;9.214;2024-02-21T00:49:22;8.50;;;5.40;;
1026;SDS011;502;48.746;9.214;2024-02-21T00:51:48;11.90;;;4.57;;
1026;SDS011;502;48.746;9.214;2024-02-21T00:54:15;7.07;;;4.33;;
1026;SDS011;502;48.746;9.214;2024-02-21T00:56:42;6.40;;;4.60;;
1026;SDS011;502;48.746;9.214;2024-02-21T00:59:10;8.30;;;5.03;;
1026;SDS011;502;48.746;9.214;2024-02-21T01:01:36;7.57;;;4.53;;
1026;SDS011;502;48.746;9.214;2024-02-21T01:04:03;7.10;;;4.70;;
1026;SDS011;502;48.746;9.214;2024-02-21T01:06:30;6.57;;;4.60;;
1026;SDS011;502;48.746;9.214;2024-02-21T01:08:56;7.23;;;5.00;;
1026;SDS011;502;48.746;9.214;2024-02-21T01:11:23;7.77;;;4.60;;
1026;SDS011;502;48.746;9.214;2024-02-21T01:13:49;9.00;;;5.27;;
1026;SDS011;502;48.746;9.214;2024-02-21T01:16:17;4.90;;;4.10;;
1026;SDS011;502;48.746;9.214;2024-02-21T01:18:44;7.83;;;4.67;;
1026;SDS011;502;48.746;9.214;2024-02-21T01:21:10;5.13;;;4.30;;
1026;SDS011;502;48.746;9.214;2024-02-21T01:23:37;7.27;;;4.47;;
1026;SDS011;502;48.746;9.214;2024-02-21T01:26:03;8.70;;;5.00;;
1026;SDS011;502;48.746;9.214;2024-02-21T01:28:33;8.40;;;4.73;;
1026;SDS011;502;48.746;9.214;2024-02-21T01:31:00;8.13;;;5.27;;
1026;SDS011;502;48.746;9.214;2024-02-21T01:33:27;7.07;;;5.30;;
1026;SDS011;502;48.746;9.214;2024-02-21T01:35:59;6.73;;;4.20;;
1026;SDS011;502;48.746;9.214;2024-02-21T01:38:26;5.03;;;4.27;;
1026;SDS011;502;48.746;9.214;2024-02-21T01:40:53;7.90;;;4.03;;
1026;SDS011;502;48.746;9.214;2024-02-21T01:43:20;8.13;;;4.60;;
1026;SDS011;502;48.746;9.214;2024-02-21T01:45:49;9.03;;;4.17;;
1026;SDS011;502;48.746;9.214;2024-02-21T01:48:17;5.07;;;4.00;;
1026;SDS011;502;48.746;9.214;2024-02-21T01:50:45;6.53;;;4.70;;
1026;SDS011;502;48.746;9.214;2024-02-21T01:53:14;4.73;;;3.63;;
1026;SDS011;502;48.746;9.214;2024-02-21T01:55:44;4.90;;;3.73;;
1026;SDS011;502;48.746;9.214;2024-02-21T01:58:11;4.73;;;3.97;;
1026;SDS011;502;48.746;9.214;2024-02-21T02:00:38;6.20;;;4.23;;
1026;SDS011;502;48.746;9.214;2024-02-21T02:03:06;5.93;;;3.80;;
1026;SDS011;502;48.746;9.214;2024-02-21T02:05:33;6.70;;;3.70;;
1026;SDS011;502;48.746;9.214;2024-02-21T02:08:01;6.33;;;3.57;;
1026;SDS011;502;48.746;9.214;2024-02-21T02:10:27;4.87;;;3.87;;
1026;SDS011;502;48.746;9.214;2024-02-21T02:12:54;5.33;;;3.90;;
1026;SDS011;502;48.746;9.214;2024-02-21T02:15:20;5.17;;;4.23;;
1026;SDS011;502;48.746;9.214;2024-02-21T02:17:47;9.70;;;4.20;;
1026;SDS011;502;48.746;9.214;2024-02-21T02:20:13;6.80;;;3.90;;
1026;SDS011;502;48.746;9.214;2024-02-21T02:22:40;5.50;;;4.00;;
1026;SDS011;502;48.746;9.214;2024-02-21T02:25:11;8.57;;;4.70;;
1026;SDS011;502;48.746;9.214;2024-02-21T02:27:44;5.60;;;3.37;;
1026;SDS011;502;48.746;9.214;2024-02-21T02:30:11;7.80;;;4.03;;
1026;SDS011;502;48.746;9.214;2024-02-21T02:32:38;7.50;;;4.50;;
1026;SDS011;502;48.746;9.214;2024-02-21T02:35:04;6.07;;;4.30;;
1026;SDS011;502;48.746;9.214;2024-02-21T02:37:31;5.13;;;4.50;;
1026;SDS011;502;48.746;9.214;2024-02-21T02:39:58;5.70;;;4.00;;
1026;SDS011;502;48.746;9.214;2024-02-21T02:42:26;6.37;;;4.53;;
1026;SDS011;502;48.746;9.214;2024-02-21T02:44:52;6.83;;;4.23;;
1026;SDS011;502;48.746;9.214;2024-02-21T02:47:19;8.07;;;4.67;;
1026;SDS011;502;48.746;9.214;2024-02-21T02:49:45;7.60;;;4.07;;
1026;SDS011;502;48.746;9.214;2024-02-21T02:52:15;9.73;;;4.43;;
1026;SDS011;502;48.746;9.214;2024-02-21T02:54:42;6.10;;;3.90;;
1026;SDS011;502;48.746;9.214;2024-02-21T02:57:08;6.23;;;3.60;;
1026;SDS011;502;48.746;9.214;2024-02-21T02:59:36;7.83;;;4.30;;
1026;SDS011;502;48.746;9.214;2024-02-21T03:02:03;11.63;;;3.57;;
1026;SDS011;502;48.746;9.214;2024-02-21T03:04:29;6.97;;;4.20;;
1026;SDS011;502;48.746;9.214;2024-02-21T03:06:56;7.50;;;4.17;;
1026;SDS011;502;48.746;9.214;2024-02-21T03:09:22;5.60;;;3.00;;
1026;SDS011;502;48.746;9.214;2024-02-21T03:11:49;4.60;;;3.10;;
1026;SDS011;502;48.746;9.214;2024-02-21T03:14:16;3.50;;;3.13;;
1026;SDS011;502;48.746;9.214;2024-02-21T03:16:43;4.33;;;2.80;;
1026;SDS011;502;48.746;9.214;2024-02-21T03:19:10;7.67;;;3.77;;
1026;SDS011;502;48.746;9.214;2024-02-21T03:21:37;5.20;;;3.57;;
1026;SDS011;502;48.746;9.214;2024-02-21T03:24:04;6.63;;;3.80;;
1026;SDS011;502;48.746;9.214;2024-02-21T03:26:31;10.10;;;2.87;;
1026;SDS011;502;48.746;9.214;2024-02-21T03:28:58;4.10;;;3.10;;
1026;SDS011;502;48.746;9.214;2024-02-21T03:31:24;9.60;;;3.50;;
1026;SDS011;502;48.746;9.214;2024-02-21T03:33:52;6.80;;;4.50;;
1026;SDS011;502;48.746;9.214;2024-02-21T03:36:19;4.07;;;3.37;;
1026;SDS011;502;48.746;9.214;2024-02-21T03:38:45;8.17;;;3.90;;
1026;SDS011;502;48.746;9.214;2024-02-21T03:41:13;7.67;;;3.70;;
1026;SDS011;502;48.746;9.214;2024-02-21T03:43:39;6.20;;;3.07;;
1026;SDS011;502;48.746;9.214;2024-02-21T03:46:06;7.23;;;3.70;;
1026;SDS011;502;48.746;9.214;2024-02-21T03:48:32;8.13;;;3.40;;
1026;SDS011;502;48.746;9.214;2024-02-21T03:51:00;4.00;;;3.07;;
1026;SDS011;502;48.746;9.214;2024-02-21T03:53:27;6.13;;;3.60;;
1026;SDS011;502;48.746;9.214;2024-02-21T03:55:53;9.10;;;3.87;;
1026;SDS011;502;48.746;9.214;2024-02-21T03:58:20;5.80;;;3.73;;
1026;SDS011;502;48.746;9.214;2024-02-21T04:00:47;6.43;;;3.40;;
1026;SDS011;502;48.746;9.214;2024-02-21T04:03:14;9.83;;;3.43;;
1026;SDS011;502;48.746;9.214;2024-02-21T04:05:40;5.00;;;3.27;;
1026;SDS011;502;48.746;9.214;2024-02-21T04:08:08;5.67;;;3.60;;
1026;SDS011;502;48.746;9.214;2024-02-21T04:10:35;3.50;;;3.10;;
1026;SDS011;502;48.746;9.214;2024-02-21T04:13:02;7.33;;;3.33;;
1026;SDS011;502;48.746;9.214;2024-02-21T04:15:28;5.03;;;3.00;;
1026;SDS011;502;48.746;9.214;2024-02-21T04:17:55;4.73;;;3.20;;
1026;SDS011;502;48.746;9.214;2024-02-21T04:20:21;5.43;;;3.13;;
1026;SDS011;502;48.746;9.214;2024-02-21T04:22:48;5.40;;;3.17;;
1026;SDS011;502;48.746;9.214;2024-02-21T04:25:16;5.50;;;3.13;;
1026;SDS011;502;48.746;9.214;2024-02-21T04:27:42;8.57;;;3.40;;
1026;SDS011;502;48.746;9.214;2024-02-21T04:30:09;4.77;;;3.07;;
1026;SDS011;502;48.746;9.214;2024-02-21T04:32:36;4.10;;;2.57;;
1026;SDS011;502;48.746;9.214;2024-02-21T04:35:03;5.17;;;3.03;;
1026;SDS011;502;48.746;9.214;2024-02-21T04:37:29;4.97;;;3.10;;
1026;SDS011;502;48.746;9.214;2024-02-21T04:39:56;6.70;;;3.50;;
1026;SDS011;502;48.746;9.214;2024-02-21T04:42:24;5.37;;;3.20;;
1026;SDS011;502;48.746;9.214;2024-02-21T04:44:51;5.40;;;3.90;;
1026;SDS011;502;48.746;9.214;2024-02-21T04:47:18;6.47;;;3.67;;
1026;SDS011;502;48.746;9.214;2024-02-21T04:49:45;4.00;;;2.80;;
1026;SDS011;502;48.746;9.214;2024-02-21T04:52:11;6.73;;;4.10;;
1026;SDS011;502;48.746;9.214;2024-02-21T04:54:38;4.67;;;3.13;;
1026;SDS011;502;48.746;9.214;2024-02-21T04:57:05;6.30;;;3.43;;
1026;SDS011;502;48.746;9.214;2024-02-21T04:59:33;5.47;;;3.40;;
1026;SDS011;502;48.746;9.214;2024-02-21T05:02:00;8.20;;;3.63;;
1026;SDS011;502;48.746;9.214;2024-02-21T05:04:26;6.17;;;3.43;;
1026;SDS011;502;48.746;9.214;2024-02-21T05:06:53;7.97;;;3.10;;
1026;SDS011;502;48.746;9.214;2024-02-21T05:09:20;4.20;;;2.80;;
1026;SDS011;502;48.746;9.214;2024-02-21T05:11:46;5.67;;;3.00;;
1026;SDS011;502;48.746;9.214;2024-02-21T05:14:13;3.60;;;2.90;;
1026;SDS011;502;48.746;9.214;2024-02-21T05:16:41;6.30;;;2.90;;
1026;SDS011;502;48.746;9.214;2024-02-21T05:19:07;4.23;;;2.90;;
1026;SDS011;502;48.746;9.214;2024-02-21T05:21:34;8.63;;;2.83;;
1026;SDS011;502;48.746;9.214;2024-02-21T05:24:00;4.30;;;3.20;;
1026;SDS011;502;48.746;9.214;2024-02-21T05:26:27;6.67;;;3.30;;
1026;SDS011;502;48.746;9.214;2024-02-21T05:28:54;8.40;;;3.20;;
1026;SDS011;502;48.746;9.214;2024-02-21T05:31:20;4.93;;;2.73;;
1026;SDS011;502;48.746;9.214;2024-02-21T05:33:48;4.40;;;2.70;;
1026;SDS011;502;48.746;9.214;2024-02-21T05:36:15;4.27;;;2.80;;
1026;SDS011;502;48.746;9.214;2024-02-21T05:38:41;5.37;;;3.00;;
1026;SDS011;502;48.746;9.214;2024-02-21T05:41:08;6.87;;;4.03;;
1026;SDS011;502;48.746;9.214;2024-02-21T05:43:34;3.83;;;2.97;;
1026;SDS011;502;48.746;9.214;2024-02-21T05:46:01;4.70;;;3.10;;
1026;SDS011;502;48.746;9.214;2024-02-21T05:48:28;4.73;;;3.10;;
1026;SDS011;502;48.746;9.214;2024-02-21T05:50:55;5.20;;;3.40;;
1026;SDS011;502;48.746;9.214;2024-02-21T05:53:22;6.87;;;3.30;;
1026;SDS011;502;48.746;9.214;2024-02-21T05:55:48;5.57;;;2.80;;
1026;SDS011;502;48.746;9.214;2024-02-21T05:58:15;4.27;;;3.13;;
1026;SDS011;502;48.746;9.214;2024-02-21T06:00:41;7.53;;;2.90;;
1026;SDS011;502;48.746;9.214;2024-02-21T06:03:08;4.63;;;3.03;;
1026;SDS011;502;48.746;9.214;2024-02-21T06:05:36;6.83;;;3.07;;
1026;SDS011;502;48.746;9.214;2024-02-21T06:08:05;4.30;;;2.93;;
1026;SDS011;502;48.746;9.214;2024-02-21T06:10:32;3.50;;;2.67;;
1026;SDS011;502;48.746;9.214;2024-02-21T06:12:58;5.70;;;3.33;;
1026;SDS011;502;48.746;9.214;2024-02-21T06:15:25;4.27;;;2.80;;
1026;SDS011;502;48.746;9.214;2024-02-21T06:17:51;5.20;;;3.10;;
1026;SDS011;502;48.746;9.214;2024-02-21T06:20:18;4.73;;;2.93;;
1026;SDS011;502;48.746;9.214;2024-02-21T06:22:44;4.87;;;3.03;;
1026;SDS011;502;48.746;9.214;2024-02-21T06:25:12;4.60;;;3.20;;
1026;SDS011;502;48.746;9.214;2024-02-21T06:27:38;5.07;;;2.70;;
1026;SDS011;502;48.746;9.214;2024-02-21T06:30:05;3.73;;;2.80;;
1026;SDS011;502;48.746;9.214;2024-02-21T06:32:32;2.90;;;2.30;;
1026;SDS011;502;48.746;9.214;2024-02-21T06:34:59;3.60;;;2.90;;
1026;SDS011;502;48.746;9.214;2024-02-21T06:37:26;6.03;;;3.10;;
1026;SDS011;502;48.746;9.214;2024-02-21T06:39:53;5.43;;;3.70;;
1026;SDS011;502;48.746;9.214;2024-02-21T06:42:21;5.83;;;3.20;;
1026;SDS011;502;48.746;9.214;2024-02-21T06:44:47;2.90;;;2.43;;
1026;SDS011;502;48.746;9.214;2024-02-21T06:47:14;4.40;;;3.00;;
1026;SDS011;502;48.746;9.214;2024-02-21T06:49:40;4.63;;;2.30;;
1026;SDS011;502;48.746;9.214;2024-02-21T06:52:07;6.40;;;3.37;;
1026;SDS011;502;48.746;9.214;2024-02-21T06:54:33;3.00;;;2.57;;
1026;SDS011;502;48.746;9.214;2024-02-21T06:57:00;5.07;;;3.23;;
1026;SDS011;502;48.746;9.214;2024-02-21T06:59:28;5.20;;;2.83;;
1026;SDS011;502;48.746;9.214;2024-02-21T07:01:54;4.77;;;3.10;;
1026;SDS011;502;48.746;9.214;2024-02-21T07:04:21;6.53;;;2.73;;
1026;SDS011;502;48.746;9.214;2024-02-21T07:06:48;5.00;;;3.57;;
1026;SDS011;502;48.746;9.214;2024-02-21T07:09:14;8.43;;;2.97;;
1026;SDS011;502;48.746;9.214;2024-02-21T07:11:41;7.63;;;3.43;;
1026;SDS011;502;48.746;9.214;2024-02-21T07:14:07;3.37;;;2.80;;
1026;SDS011;502;48.746;9.214;2024-02-21T07:16:35;3.13;;;2.73;;
1026;SDS011;502;48.746;9.214;2024-02-21T07:19:02;4.10;;;3.10;;
1026;SDS011;502;48.746;9.214;2024-02-21T07:21:28;4.93;;;2.63;;
1026;SDS011;502;48.746;9.214;2024-02-21T07:23:55;4.43;;;2.80;;
1026;SDS011;502;48.746;9.214;2024-02-21T07:26:21;5.13;;;2.97;;
1026;SDS011;502;48.746;9.214;2024-02-21T07:28:48;4.20;;;2.70;;
1026;SDS011;502;48.746;9.214;2024-02-21T07:31:14;5.90;;;3.00;;
1026;SDS011;502;48.746;9.214;2024-02-21T07:33:42;5.30;;;3.17;;
1026;SDS011;502;48.746;9.214;2024-02-21T07:36:09;5.00;;;2.70;;
1026;SDS011;502;48.746;9.214;2024-02-21T07:38:36;4.73;;;3.10;;
1026;SDS011;502;48.746;9.214;2024-02-21T07:41:03;3.67;;;2.63;;
1026;SDS011;502;48.746;9.214;2024-02-21T07:43:30;5.47;;;3.37;;
1026;SDS011;502;48.746;9.214;2024-02-21T07:45:56;5.37;;;2.57;;
1026;SDS011;502;48.746;9.214;2024-02-21T07:48:23;5.30;;;2.60;;
1026;SDS011;502;48.746;9.214;2024-02-21T07:50:53;4.17;;;2.67;;
1026;SDS011;502;48.746;9.214;2024-02-21T07:53:19;5.40;;;2.50;;
1026;SDS011;502;48.746;9.214;2024-02-21T07:55:46;4.90;;;2.73;;
1026;SDS011;502;48.746;9.214;2024-02-21T07:58:13;8.40;;;2.80;;
1026;SDS011;502;48.746;9.214;2024-02-21T08:00:39;5.50;;;2.87;;
1026;SDS011;502;48.746;9.214;2024-02-21T08:03:06;6.63;;;3.10;;
1026;SDS011;502;48.746;9.214;2024-02-21T08:05:33;6.00;;;2.40;;
1026;SDS011;502;48.746;9.214;2024-02-21T08:08:02;4.77;;;2.50;;
1026;SDS011;502;48.746;9.214;2024-02-21T08:10:28;3.80;;;2.33;;
1026;SDS011;502;48.746;9.214;2024-02-21T08:12:55;4.43;;;2.20;;
1026;SDS011;502;48.746;9.214;2024-02-21T08:15:21;5.00;;;2.77;;
1026;SDS011;502;48.746;9.214;2024-02-21T08:17:53;3.20;;;2.57;;
1026;SDS011;502;48.746;9.214;2024-02-21T08:20:24;3.57;;;2.33;;
1026;SDS011;502;48.746;9.214;2024-02-21T08:22:50;8.47;;;2.80;;
1026;SDS011;502;48.746;9.214;2024-02-21T08:25:18;5.17;;;2.40;;
1026;SDS011;502;48.746;9.214;2024-02-21T08:27:44;3.13;;;2.30;;
1026;SDS011;502;48.746;9.214;2024-02-21T08:30:11;4.17;;;2.40;;
1026;SDS011;502;48.746;9.214;2024-02-21T08:32:38;7.80;;;2.97;;
1026;SDS011;502;48.746;9.214;2024-02-21T08:35:05;3.60;;;2.27;;
1026;SDS011;502;48.746;9.214;2024-02-21T08:37:32;3.50;;;2.50;;
1026;SDS011;502;48.746;9.214;2024-02-21T08:39:59;4.57;;;2.70;;
1026;SDS011;502;48.746;9.214;2024-02-21T08:42:31;6.10;;;3.20;;
1026;SDS011;502;48.746;9.214;2024-02-21T08:44:58;4.60;;;2.00;;
1026;SDS011;502;48.746;9.214;2024-02-21T08:47:24;4.73;;;2.60;;
1026;SDS011;502;48.746;9.214;2024-02-21T08:49:51;3.73;;;2.50;;
1026;SDS011;502;48.746;9.214;2024-02-21T08:52:17;3.77;;;2.40;;
1026;SDS011;502;48.746;9.214;2024-02-21T08:54:44;5.67;;;2.10;;
1026;SDS011;502;48.746;9.214;2024-02-21T08:57:10;4.73;;;2.50;;
1026;SDS011;502;48.746;9.214;2024-02-21T08:59:40;4.37;;;2.90;;
1026;SDS011;502;48.746;9.214;2024-02-21T09:02:06;3.50;;;2.70;;
1026;SDS011;502;48.746;9.214;2024-02-21T09:04:34;3.60;;;2.70;;
1026;SDS011;502;48.746;9.214;2024-02-21T09:07:00;6.83;;;3.00;;
1026;SDS011;502;48.746;9.214;2024-02-21T09:09:27;4.70;;;3.20;;
1026;SDS011;502;48.746;9.214;2024-02-21T09:11:53;5.73;;;2.90;;
1026;SDS011;502;48.746;9.214;2024-02-21T09:14:20;3.80;;;2.40;;
1026;SDS011;502;48.746;9.214;2024-02-21T09:16:48;5.00;;;2.37;;
1026;SDS011;502;48.746;9.214;2024-02-21T09:19:15;5.00;;;2.77;;
1026;SDS011;502;48.746;9.214;2024-02-21T09:21:43;5.87;;;2.70;;
1026;SDS011;502;48.746;9.214;2024-02-21T09:24:09;2.87;;;2.37;;
1026;SDS011;502;48.746;9.214;2024-02-21T09:26:36;4.40;;;2.50;;
1026;SDS011;502;48.746;9.214;2024-02-21T09:29:02;3.97;;;2.07;;
1026;SDS011;502;48.746;9.214;2024-02-21T09:31:29;2.97;;;2.27;;
1026;SDS011;502;48.746;9.214;2024-02-21T09:33:56;9.30;;;3.00;;
1026;SDS011;502;48.746;9.214;2024-02-21T09:36:23;4.53;;;2.30;;
1026;SDS011;502;48.746;9.214;2024-02-21T09:38:50;2.13;;;1.83;;
1026;SDS011;502;48.746;9.214;2024-02-21T09:41:16;5.77;;;2.40;;
1026;SDS011;502;48.746;9.214;2024-02-21T09:43:44;3.50;;;2.27;;
1026;SDS011;502;48.746;9.214;2024-02-21T09:46:13;3.43;;;2.13;;
1026;SDS011;502;48.746;9.214;2024-02-21T09:48:48;4.27;;;2.40;;
1026;SDS011;502;48.746;9.214;2024-02-21T09:51:23;3.43;;;1.97;;
1026;SDS011;502;48.746;9.214;2024-02-21T09:53:51;2.70;;;2.13;;
1026;SDS011;502;48.746;9.214;2024-02-21T09:56:18;4.47;;;2.53;;
1026;SDS011;502;48.746;9.214;2024-02-21T09:58:46;5.67;;;2.83;;
1026;SDS011;502;48.746;9.214;2024-02-21T10:01:13;9.33;;;2.17;;
1026;SDS011;502;48.746;9.214;2024-02-21T10:03:39;4.50;;;2.37;;
1026;SDS011;502;48.746;9.214;2024-02-21T10:06:06;3.60;;;2.53;;
1026;SDS011;502;48.746;9.214;2024-02-21T10:08:33;7.90;;;3.03;;
1026;SDS011;502;48.746;9.214;2024-02-21T10:11:00;8.17;;;2.97;;
1026;SDS011;502;48.746;9.214;2024-02-21T10:13:28;3.27;;;2.10;;
1026;SDS011;502;48.746;9.214;2024-02-21T10:16:02;3.27;;;1.73;;
1026;SDS011;502;48.746;9.214;2024-02-21T10:18:29;3.30;;;1.93;;
1026;SDS011;502;48.746;9.214;2024-02-21T10:20:59;3.87;;;2.00;;
1026;SDS011;502;48.746;9.214;2024-02-21T10:23:27;4.53;;;2.50;;
1026;SDS011;502;48.746;9.214;2024-02-21T10:25:55;3.10;;;2.50;;
1026;SDS011;502;48.746;9.214;2024-02-21T10:28:31;3.93;;;2.20;;
1026;SDS011;502;48.746;9.214;2024-02-21T10:30:57;2.97;;;2.00;;
1026;SDS011;502;48.746;9.214;2024-02-21T10:33:24;3.83;;;2.10;;
1026;SDS011;502;48.746;9.214;2024-02-21T10:35:53;3.27;;;1.97;;
1026;SDS011;502;48.746;9.214;2024-02-21T10:38:20;3.37;;;1.90;;
1026;SDS011;502;48.746;9.214;2024-02-21T10:40:48;3.00;;;1.83;;
1026;SDS011;502;48.746;9.214;2024-02-21T10:43:19;2.73;;;1.87;;
1026;SDS011;502;48.746;9.214;2024-02-21T10:45:48;3.80;;;2.17;;
1026;SDS011;502;48.746;9.214;2024-02-21T10:48:24;2.73;;;1.70;;
1026;SDS011;502;48.746;9.214;2024-02-21T10:50:56;4.20;;;2.20;;
1026;SDS011;502;48.746;9.214;2024-02-21T10:53:24;4.13;;;2.23;;
1026;SDS011;502;48.746;9.214;2024-02-21T10:56:12;3.60;;;1.93;;
1026;SDS011;502;48.746;9.214;2024-02-21T10:58:44;3.03;;;1.57;;
1026;SDS011;502;48.746;9.214;2024-02-21T11:01:11;2.67;;;1.70;;
1026;SDS011;502;48.746;9.214;2024-02-21T11:03:40;4.17;;;1.97;;
1026;SDS011;502;48.746;9.214;2024-02-21T11:06:07;7.23;;;2.23;;
1026;SDS011;502;48.746;9.214;2024-02-21T11:08:35;5.70;;;2.17;;
1026;SDS011;502;48.746;9.214;2024-02-21T11:11:02;4.90;;;1.50;;
1026;SDS011;502;48.746;9.214;2024-02-21T11:13:30;2.60;;;1.53;;
1026;SDS011;502;48.746;9.214;2024-02-21T11:16:06;2.50;;;1.53;;
1026;SDS011;502;48.746;9.214;2024-02-21T11:18:34;4.83;;;1.60;;
1026;SDS011;502;48.746;9.214;2024-02-21T11:21:01;4.40;;;1.60;;
1026;SDS011;502;48.746;9.214;2024-02-21T11:23:28;4.70;;;1.90;;
1026;SDS011;502;48.746;9.214;2024-02-21T11:26:03;4.63;;;2.00;;
1026;SDS011;502;48.746;9.214;2024-02-21T11:28:30;2.67;;;1.30;;
1026;SDS011;502;48.746;9.214;2024-02-21T11:31:04;3.00;;;1.30;;
1026;SDS011;502;48.746;9.214;2024-02-21T11:33:34;5.20;;;2.00;;
1026;SDS011;502;48.746;9.214;2024-02-21T11:36:01;1.87;;;1.47;;
1026;SDS011;502;48.746;9.214;2024-02-21T11:38:29;2.77;;;1.23;;
1026;SDS011;502;48.746;9.214;2024-02-21T11:40:56;3.50;;;1.50;;
1026;SDS011;502;48.746;9.214;2024-02-21T11:43:23;4.17;;;1.37;;
1026;SDS011;502;48.746;9.214;2024-02-21T11:45:50;2.50;;;1.40;;
1026;SDS011;502;48.746;9.214;2024-02-21T11:48:18;2.80;;;1.20;;
1026;SDS011;502;48.746;9.214;2024-02-21T11:50:52;2.13;;;1.13;;
1026;SDS011;502;48.746;9.214;2024-02-21T11:53:19;2.13;;;1.60;;
1026;SDS011;502;48.746;9.214;2024-02-21T11:55:46;1.97;;;1.23;;
1026;SDS011;502;48.746;9.214;2024-02-21T11:58:12;1.90;;;1.27;;
1026;SDS011;502;48.746;9.214;2024-02-21T12:00:39;3.37;;;1.50;;
1026;SDS011;502;48.746;9.214;2024-02-21T12:03:06;4.13;;;1.87;;
1026;SDS011;502;48.746;9.214;2024-02-21T12:05:35;1.60;;;1.00;;
1026;SDS011;502;48.746;9.214;2024-02-21T12:08:02;1.80;;;1.50;;
1026;SDS011;502;48.746;9.214;2024-02-21T12:10:29;5.20;;;1.70;;
1026;SDS011;502;48.746;9.214;2024-02-21T12:13:04;2.33;;;1.13;;
1026;SDS011;502;48.746;9.214;2024-02-21T12:15:31;2.30;;;1.37;;
1026;SDS011;502;48.746;9.214;2024-02-21T12:17:58;3.60;;;1.70;;
1026;SDS011;502;48.746;9.214;2024-02-21T12:20:25;2.43;;;0.90;;
1026;SDS011;502;48.746;9.214;2024-02-21T12:22:53;2.80;;;1.33;;
1026;SDS011;502;48.746;9.214;2024-02-21T12:25:21;3.40;;;1.03;;
1026;SDS011;502;48.746;9.214;2024-02-21T12:27:48;3.07;;;1.23;;
1026;SDS011;502;48.746;9.214;2024-02-21T12:30:15;2.00;;;1.33;;
1026;SDS011;502;48.746;9.214;2024-02-21T12:32:42;1.43;;;1.03;;
1026;SDS011;502;48.746;9.214;2024-02-21T12:35:09;1.67;;;1.20;;
1026;SDS011;502;48.746;9.214;2024-02-21T12:37:35;2.50;;;1.33;;
1026;SDS011;502;48.746;9.214;2024-02-21T12:40:05;2.03;;;1.17;;
1026;SDS011;502;48.746;9.214;2024-02-21T12:42:37;3.30;;;1.63;;
1026;SDS011;502;48.746;9.214;2024-02-21T12:45:04;2.20;;;1.27;;
1026;SDS011;502;48.746;9.214;2024-02-21T12:47:31;1.60;;;1.20;;
1026;SDS011;502;48.746;9.214;2024-02-21T12:49:58;2.00;;;1.20;;
1026;SDS011;502;48.746;9.214;2024-02-21T12:52:24;1.70;;;0.80;;
1026;SDS011;502;48.746;9.214;2024-02-21T12:54:51;2.53;;;1.03;;
1026;SDS011;502;48.746;9.214;2024-02-21T12:57:23;1.90;;;1.23;;
1026;SDS011;502;48.746;9.214;2024-02-21T12:59:49;1.70;;;1.00;;
1026;SDS011;502;48.746;9.214;2024-02-21T13:02:16;2.20;;;1.10;;
1026;SDS011;502;48.746;9.214;2024-02-21T13:04:45;2.27;;;1.10;;
1026;SDS011;502;48.746;9.214;2024-02-21T13:07:11;2.00;;;1.13;;
1026;SDS011;502;48.746;9.214;2024-02-21T13:09:38;3.03;;;1.17;;
1026;SDS011;502;48.746;9.214;2024-02-21T13:12:05;2.70;;;1.20;;
1026;SDS011;502;48.746;9.214;2024-02-21T13:14:33;1.87;;;1.10;;
1026;SDS011;502;48.746;9.214;2024-02-21T13:17:02;3.00;;;1.40;;
1026;SDS011;502;48.746;9.214;2024-02-21T13:19:29;1.73;;;1.23;;
1026;SDS011;502;48.746;9.214;2024-02-21T13:21:55;1.40;;;1.20;;
1026;SDS011;502;48.746;9.214;2024-02-21T13:24:22;2.13;;;1.17;;
1026;SDS011;502;48.746;9.214;2024-02-21T13:26:48;1.67;;;1.00;;
1026;SDS011;502;48.746;9.214;2024-02-21T13:29:15;1.63;;;0.90;;
1026;SDS011;502;48.746;9.214;2024-02-21T13:32:08;2.30;;;1.17;;
1026;SDS011;502;48.746;9.214;2024-02-21T13:34:34;1.80;;;0.87;;
1026;SDS011;502;48.746;9.214;2024-02-21T13:37:01;1.50;;;0.87;;
1026;SDS011;502;48.746;9.214;2024-02-21T13:39:29;1.30;;;0.80;;
1026;SDS011;502;48.746;9.214;2024-02-21T13:41:59;1.03;;;0.60;;
1026;SDS011;502;48.746;9.214;2024-02-21T13:44:26;1.30;;;0.80;;
1026;SDS011;502;48.746;9.214;2024-02-21T13:46:52;1.27;;;0.87;;
1026;SDS011;502;48.746;9.214;2024-02-21T13:49:20;1.73;;;1.00;;
1026;SDS011;502;48.746;9.214;2024-02-21T13:51:47;1.93;;;1.13;;
1026;SDS011;502;48.746;9.214;2024-02-21T13:54:13;2.33;;;1.10;;
1026;SDS011;502;48.746;9.214;2024-02-21T13:56:42;1.70;;;1.20;;
1026;SDS011;502;48.746;9.214;2024-02-21T13:59:08;1.50;;;0.80;;
1026;SDS011;502;48.746;9.214;2024-02-21T14:01:35;4.00;;;1.00;;
1026;SDS011;502;48.746;9.214;2024-02-21T14:04:01;1.57;;;0.97;;
1026;SDS011;502;48.746;9.214;2024-02-21T14:06:30;1.87;;;1.30;;
1026;SDS011;502;48.746;9.214;2024-02-21T14:08:57;1.70;;;0.70;;
1026;SDS011;502;48.746;9.214;2024-02-21T14:11:23;1.27;;;0.77;;
1026;SDS011;502;48.746;9.214;2024-02-21T14:13:50;1.70;;;1.00;;
1026;SDS011;502;48.746;9.214;2024-02-21T14:16:16;1.60;;;0.97;;
1026;SDS011;502;48.746;9.214;2024-02-21T14:18:43;3.63;;;0.93;;
1026;SDS011;502;48.746;9.214;2024-02-21T14:21:09;2.03;;;0.93;;
1026;SDS011;502;48.746;9.214;2024-02-21T14:23:38;1.60;;;1.17;;
1026;SDS011;502;48.746;9.214;2024-02-21T14:26:04;2.30;;;1.43;;
1026;SDS011;502;48.746;9.214;2024-02-21T14:28:31;2.33;;;1.30;;
1026;SDS011;502;48.746;9.214;2024-02-21T14:30:58;5.47;;;1.07;;
1026;SDS011;502;48.746;9.214;2024-02-21T14:33:25;1.93;;;1.13;;
1026;SDS011;502;48.746;9.214;2024-02-21T14:35:52;2.13;;;1.13;;
1026;SDS011;502;48.746;9.214;2024-02-21T14:38:18;2.80;;;1.40;;
1026;SDS011;502;48.746;9.214;2024-02-21T14:40:47;1.87;;;1.20;;
1026;SDS011;502;48.746;9.214;2024-02-21T14:43:14;1.53;;;1.10;;
1026;SDS011;502;48.746;9.214;2024-02-21T14:45:40;2.50;;;1.70;;
1026;SDS011;502;48.746;9.214;2024-02-21T14:48:08;1.80;;;1.30;;
1026;SDS011;502;48.746;9.214;2024-02-21T14:50:34;2.50;;;1.57;;
1026;SDS011;502;48.746;9.214;2024-02-21T14:53:00;3.10;;;1.30;;
1026;SDS011;502;48.746;9.214;2024-02-21T14:55:27;1.83;;;1.27;;
1026;SDS011;502;48.746;9.214;2024-02-21T14:57:55;3.60;;;1.40;;
1026;SDS011;502;48.746;9.214;2024-02-21T15:00:21;1.70;;;1.30;;
1026;SDS011;502;48.746;9.214;2024-02-21T15:02:55;2.00;;;1.20;;
1026;SDS011;502;48.746;9.214;2024-02-21T15:05:21;2.03;;;1.40;;
1026;SDS011;502;48.746;9.214;2024-02-21T15:07:48;3.90;;;1.60;;
1026;SDS011;502;48.746;9.214;2024-02-21T15:10:15;2.83;;;1.60;;
1026;SDS011;502;48.746;9.214;2024-02-21T15:12:43;2.03;;;1.30;;
1026;SDS011;502;48.746;9.214;2024-02-21T15:15:11;1.50;;;1.23;;
1026;SDS011;502;48.746;9.214;2024-02-21T15:17:37;5.07;;;1.47;;
1026;SDS011;502;48.746;9.214;2024-02-21T15:20:04;3.10;;;1.53;;
1026;SDS011;502;48.746;9.214;2024-02-21T15:22:32;2.87;;;1.43;;
1026;SDS011;502;48.746;9.214;2024-02-21T15:24:59;2.10;;;1.20;;
1026;SDS011;502;48.746;9.214;2024-02-21T15:27:26;2.37;;;1.20;;
1026;SDS011;502;48.746;9.214;2024-02-21T15:29:53;1.77;;;1.10;;